createdAt,value
2018-10-06T00:00:19.804Z,7.00
2018-10-06T00:02:49.152Z,7.33
2018-10-06T00:05:18.349Z,7.47
2018-10-06T00:07:47.371Z,7.47
2018-10-06T00:10:17.638Z,7.07
2018-10-06T00:12:46.698Z,7.53
2018-10-06T00:15:16.472Z,7.83
2018-10-06T00:17:45.460Z,7.17
2018-10-06T00:20:14.608Z,7.70
2018-10-06T00:22:43.903Z,7.90
2018-10-06T00:25:13.064Z,7.83
2018-10-06T00:27:42.414Z,7.37
2018-10-06T00:30:11.705Z,8.53
2018-10-06T00:32:40.673Z,7.37
2018-10-06T00:35:09.753Z,7.17
2018-10-06T00:37:38.740Z,7.67
2018-10-06T00:40:07.686Z,7.13
2018-10-06T00:42:36.714Z,7.40
2018-10-06T00:45:05.967Z,7.10
2018-10-06T00:47:35.015Z,6.77
2018-10-06T00:50:04.516Z,7.13
2018-10-06T00:52:33.684Z,8.53
2018-10-06T00:55:02.642Z,9.47
2018-10-06T00:57:31.666Z,10.53
2018-10-06T01:00:00.801Z,9.30
2018-10-06T01:02:29.915Z,8.37
2018-10-06T01:04:58.993Z,8.00
2018-10-06T01:07:28.445Z,9.47
2018-10-06T01:09:57.461Z,8.30
2018-10-06T01:12:27.142Z,7.53
2018-10-06T01:14:56.489Z,8.90
2018-10-06T01:17:25.540Z,9.00
2018-10-06T01:19:54.519Z,8.40
2018-10-06T01:22:23.555Z,7.97
2018-10-06T01:24:52.721Z,7.97
2018-10-06T01:27:21.725Z,8.17
2018-10-06T01:29:51.435Z,7.60
2018-10-06T01:32:20.409Z,7.50
2018-10-06T01:34:49.447Z,8.20
2018-10-06T01:37:18.527Z,7.90
2018-10-06T01:39:47.588Z,7.30
2018-10-06T01:42:16.770Z,8.03
2018-10-06T01:44:45.811Z,8.77
2018-10-06T01:47:14.828Z,9.17
2018-10-06T01:49:43.832Z,8.53
2018-10-06T01:52:12.834Z,8.40
2018-10-06T01:54:41.918Z,9.37
2018-10-06T01:57:11.283Z,9.40
2018-10-06T01:59:40.346Z,9.93
2018-10-06T02:02:10.148Z,8.23
2018-10-06T02:04:39.353Z,10.73
2018-10-06T02:07:08.560Z,10.87
2018-10-06T02:09:37.753Z,8.90
2018-10-06T02:12:07.022Z,7.90
2018-10-06T02:14:36.428Z,6.83
2018-10-06T02:17:05.648Z,6.47
2018-10-06T02:19:34.710Z,6.40
2018-10-06T02:22:03.942Z,6.40
2018-10-06T02:24:32.929Z,6.73
2018-10-06T02:27:01.931Z,8.50
2018-10-06T02:29:30.940Z,8.47
2018-10-06T02:32:02.657Z,8.63
2018-10-06T02:34:31.782Z,8.23
2018-10-06T02:37:01.160Z,6.57
2018-10-06T02:39:30.567Z,7.93
2018-10-06T02:42:00.509Z,7.10
2018-10-06T02:44:30.008Z,6.17
2018-10-06T02:46:59.235Z,7.93
2018-10-06T02:49:28.367Z,7.97
2018-10-06T02:51:57.391Z,6.90
2018-10-06T02:54:26.455Z,6.63
2018-10-06T02:56:55.969Z,6.53
2018-10-06T02:59:25.319Z,6.30
2018-10-06T03:01:54.293Z,6.33
2018-10-06T03:04:26.387Z,8.10
2018-10-06T03:06:55.712Z,7.07
2018-10-06T03:09:25.076Z,7.20
2018-10-06T03:11:54.222Z,6.50
2018-10-06T03:14:24.081Z,6.53
2018-10-06T03:16:53.138Z,7.43
2018-10-06T03:19:22.219Z,7.00
2018-10-06T03:21:52.785Z,7.13
2018-10-06T03:24:21.995Z,6.77
2018-10-06T03:26:51.051Z,7.70
2018-10-06T03:29:20.422Z,8.37
2018-10-06T03:31:50.322Z,9.53
2018-10-06T03:34:19.756Z,8.47
2018-10-06T03:36:49.581Z,8.80
2018-10-06T03:39:22.636Z,8.50
2018-10-06T03:41:54.397Z,8.03
2018-10-06T03:44:27.430Z,7.80
2018-10-06T03:47:00.253Z,8.20
2018-10-06T03:49:31.066Z,8.27
2018-10-06T03:52:02.130Z,8.10
2018-10-06T03:54:34.248Z,8.97
2018-10-06T03:57:07.880Z,8.00
2018-10-06T03:59:38.420Z,6.93
2018-10-06T04:02:07.966Z,8.13
2018-10-06T04:04:38.775Z,7.27
2018-10-06T04:07:09.319Z,7.00
2018-10-06T04:09:40.183Z,6.20
2018-10-06T04:12:12.272Z,7.30
2018-10-06T04:14:44.190Z,6.63
2018-10-06T04:17:19.106Z,7.00
2018-10-06T04:19:51.603Z,6.90
2018-10-06T04:22:24.619Z,7.30
2018-10-06T04:24:56.247Z,6.83
2018-10-06T04:27:26.713Z,7.80
2018-10-06T04:29:57.678Z,7.80
2018-10-06T04:32:32.420Z,6.43
2018-10-06T04:35:05.264Z,9.40
2018-10-06T04:37:39.548Z,8.40
2018-10-06T04:40:09.761Z,7.33
2018-10-06T04:42:39.467Z,6.63
2018-10-06T04:45:08.570Z,7.33
2018-10-06T04:47:38.594Z,7.83
2018-10-06T04:50:10.460Z,7.93
2018-10-06T04:52:43.870Z,8.23
2018-10-06T04:55:14.700Z,8.83
2018-10-06T04:57:44.131Z,9.27
2018-10-06T05:00:16.069Z,8.57
2018-10-06T05:02:45.332Z,8.70
2018-10-06T05:05:16.307Z,7.60
2018-10-06T05:07:45.617Z,7.73
2018-10-06T05:10:16.604Z,9.00
2018-10-06T05:12:46.579Z,7.80
2018-10-06T05:15:17.651Z,7.83
2018-10-06T05:17:51.409Z,8.30
2018-10-06T05:20:22.625Z,7.67
2018-10-06T05:22:54.201Z,8.03
2018-10-06T05:25:28.025Z,8.50
2018-10-06T05:28:01.220Z,7.63
2018-10-06T05:30:35.683Z,8.30
2018-10-06T05:33:09.118Z,8.00
2018-10-06T05:35:40.056Z,7.50
2018-10-06T05:38:10.847Z,9.03
2018-10-06T05:40:42.294Z,8.57
2018-10-06T05:43:12.268Z,8.27
2018-10-06T05:45:45.065Z,7.63
2018-10-06T05:48:14.454Z,8.87
2018-10-06T05:50:43.918Z,7.90
2018-10-06T05:53:13.559Z,9.20
2018-10-06T05:55:42.939Z,9.20
2018-10-06T05:58:12.314Z,10.73
2018-10-06T06:00:41.644Z,11.30
2018-10-06T06:03:10.878Z,11.63
2018-10-06T06:05:40.318Z,11.30
2018-10-06T06:08:10.852Z,10.40
2018-10-06T06:10:42.112Z,9.60
2018-10-06T06:13:11.350Z,8.83
2018-10-06T06:15:40.764Z,8.00
2018-10-06T06:18:11.003Z,9.33
2018-10-06T06:20:40.494Z,10.20
2018-10-06T06:23:10.047Z,10.03
2018-10-06T06:25:40.180Z,9.80
2018-10-06T06:28:09.929Z,10.77
2018-10-06T06:30:39.635Z,10.60
2018-10-06T06:33:09.273Z,10.10
2018-10-06T06:35:38.644Z,9.60
2018-10-06T06:38:08.731Z,8.67
2018-10-06T06:40:37.837Z,8.50
2018-10-06T06:43:07.005Z,7.37
2018-10-06T06:45:37.885Z,8.60
2018-10-06T06:48:07.108Z,6.67
2018-10-06T06:50:36.156Z,5.20
2018-10-06T06:53:05.564Z,5.77
2018-10-06T06:55:35.402Z,5.03
2018-10-06T06:58:04.781Z,4.17
2018-10-06T07:00:34.812Z,3.77
2018-10-06T07:03:04.413Z,3.33
2018-10-06T07:05:33.784Z,3.53
2018-10-06T07:08:03.080Z,3.60
2018-10-06T07:10:32.357Z,3.43
2018-10-06T07:13:02.480Z,3.30
2018-10-06T07:15:31.566Z,4.17
2018-10-06T07:18:00.779Z,4.27
2018-10-06T07:20:29.918Z,4.10
2018-10-06T07:22:59.682Z,4.43
2018-10-06T07:25:28.893Z,4.17
2018-10-06T07:27:58.231Z,3.90
2018-10-06T07:30:27.545Z,4.40
2018-10-06T07:32:56.859Z,3.87
2018-10-06T07:35:26.382Z,3.90
2018-10-06T07:37:55.574Z,4.20
2018-10-06T07:40:24.768Z,4.20
2018-10-06T07:42:53.930Z,4.20
2018-10-06T07:45:23.166Z,4.00
2018-10-06T07:47:52.717Z,4.37
2018-10-06T07:50:21.973Z,4.92
2018-10-06T07:52:51.347Z,4.67
2018-10-06T07:55:20.582Z,4.83
2018-10-06T07:57:49.895Z,4.03
2018-10-06T08:00:19.220Z,4.20
2018-10-06T08:02:51.005Z,3.90
2018-10-06T08:05:20.317Z,4.00
2018-10-06T08:07:49.826Z,3.58
2018-10-06T08:10:22.028Z,4.08
2018-10-06T08:12:51.297Z,3.42
2018-10-06T08:15:20.718Z,4.22
2018-10-06T08:17:50.086Z,3.90
2018-10-06T08:20:19.500Z,4.58
2018-10-06T08:22:49.123Z,4.10
2018-10-06T08:25:18.629Z,3.58
2018-10-06T08:27:48.936Z,4.58
2018-10-06T08:30:18.486Z,4.42
2018-10-06T08:32:47.929Z,5.22
2018-10-06T08:35:17.276Z,5.47
2018-10-06T08:37:46.578Z,7.47
2018-10-06T08:40:15.973Z,7.17
2018-10-06T08:42:45.355Z,5.05
2018-10-06T08:45:14.611Z,5.40
2018-10-06T08:47:44.017Z,5.10
2018-10-06T08:50:13.344Z,5.05
2018-10-06T08:52:42.702Z,7.03
2018-10-06T08:55:12.356Z,5.53
2018-10-06T08:57:42.503Z,6.10
2018-10-06T09:00:11.924Z,6.87
2018-10-06T09:02:41.175Z,6.50
2018-10-06T09:05:10.468Z,5.03
2018-10-06T09:07:39.784Z,5.92
2018-10-06T09:10:09.968Z,7.85
2018-10-06T09:12:39.407Z,6.33
2018-10-06T09:15:08.934Z,5.45
2018-10-06T09:17:38.357Z,4.85
2018-10-06T09:20:07.749Z,6.00
2018-10-06T09:22:37.677Z,6.95
2018-10-06T09:25:07.370Z,6.85
2018-10-06T09:27:37.392Z,7.60
2018-10-06T09:30:06.967Z,7.78
2018-10-06T09:32:36.239Z,8.60
2018-10-06T09:35:05.663Z,8.93
2018-10-06T09:37:35.549Z,9.95
2018-10-06T09:40:04.999Z,9.10
2018-10-06T09:42:34.441Z,8.88
2018-10-06T09:45:03.679Z,7.80
2018-10-06T09:47:33.209Z,10.55
2018-10-06T09:50:02.525Z,9.05
2018-10-06T09:52:31.819Z,6.22
2018-10-06T09:55:01.113Z,7.75
2018-10-06T09:57:31.286Z,10.23
2018-10-06T10:00:00.980Z,8.75
2018-10-06T10:02:35.558Z,7.30
2018-10-06T10:05:09.940Z,7.40
2018-10-06T10:07:39.059Z,6.60
2018-10-06T10:10:08.195Z,7.53
2018-10-06T10:12:37.562Z,7.42
2018-10-06T10:15:06.912Z,7.62
2018-10-06T10:17:36.112Z,7.45
2018-10-06T10:20:05.530Z,7.87
2018-10-06T10:22:34.758Z,9.13
2018-10-06T10:25:03.849Z,7.60
2018-10-06T10:27:33.790Z,7.10
2018-10-06T10:30:03.209Z,6.87
2018-10-06T10:32:32.408Z,6.80
2018-10-06T10:35:01.737Z,9.98
2018-10-06T10:37:31.186Z,7.78
2018-10-06T10:40:00.345Z,8.38
2018-10-06T10:42:29.579Z,8.23
2018-10-06T10:44:58.758Z,5.92
2018-10-06T10:47:27.895Z,8.30
2018-10-06T10:49:57.161Z,8.38
2018-10-06T10:52:26.296Z,6.97
2018-10-06T10:54:56.128Z,7.47
2018-10-06T10:57:25.283Z,7.75
2018-10-06T10:59:54.600Z,7.83
2018-10-06T11:02:23.776Z,6.40
2018-10-06T11:04:53.178Z,4.97
2018-10-06T11:07:23.548Z,6.58
2018-10-06T11:09:52.784Z,5.42
2018-10-06T11:12:22.134Z,6.10
2018-10-06T11:14:52.239Z,5.37
2018-10-06T11:17:21.591Z,6.53
2018-10-06T11:19:50.902Z,6.10
2018-10-06T11:22:21.840Z,6.80
2018-10-06T11:24:51.213Z,7.45
2018-10-06T11:27:20.536Z,5.05
2018-10-06T11:29:49.593Z,4.85
2018-10-06T11:32:20.237Z,5.00
2018-10-06T11:34:49.521Z,4.40
2018-10-06T11:37:19.997Z,4.58
2018-10-06T11:39:49.138Z,5.58
2018-10-06T11:42:19.321Z,4.58
2018-10-06T11:44:48.526Z,5.03
2018-10-06T11:47:17.777Z,4.30
2018-10-06T11:49:47.136Z,5.00
2018-10-06T11:52:16.514Z,4.20
2018-10-06T11:54:46.279Z,5.28
2018-10-06T11:57:15.788Z,6.17
2018-10-06T11:59:45.328Z,5.42
2018-10-06T12:02:14.549Z,4.92
2018-10-06T12:04:43.753Z,4.83
2018-10-06T12:07:13.233Z,4.58
2018-10-06T12:09:44.859Z,4.08
2018-10-06T12:12:14.264Z,3.67
2018-10-06T12:14:43.864Z,4.25
2018-10-06T12:17:13.166Z,4.60
2018-10-06T12:19:42.466Z,4.60
2018-10-06T12:22:11.680Z,3.92
2018-10-06T12:24:41.114Z,4.45
2018-10-06T12:27:10.478Z,4.03
2018-10-06T12:29:39.868Z,3.60
2018-10-06T12:32:09.213Z,3.55
2018-10-06T12:34:38.555Z,3.30
2018-10-06T12:37:07.855Z,3.17
2018-10-06T12:39:37.306Z,4.45
2018-10-06T12:42:06.883Z,4.33
2018-10-06T12:44:37.024Z,3.35
2018-10-06T12:47:06.221Z,3.75
2018-10-06T12:49:35.504Z,3.80
2018-10-06T12:52:04.924Z,3.67
2018-10-06T12:54:34.368Z,3.42
2018-10-06T12:57:03.681Z,3.60
2018-10-06T12:59:32.968Z,2.55
2018-10-06T13:02:02.448Z,3.08
2018-10-06T13:04:31.728Z,2.98
2018-10-06T13:07:01.033Z,3.30
2018-10-06T13:09:30.264Z,3.50
2018-10-06T13:11:59.657Z,3.12
2018-10-06T13:14:28.987Z,3.42
2018-10-06T13:16:58.317Z,3.10
2018-10-06T13:19:27.764Z,3.05
2018-10-06T13:21:56.869Z,3.85
2018-10-06T13:24:26.072Z,3.60
2018-10-06T13:26:55.507Z,3.70
2018-10-06T13:29:24.884Z,3.60
2018-10-06T13:31:54.601Z,2.60
2018-10-06T13:34:23.778Z,2.70
2018-10-06T13:36:53.127Z,3.12
2018-10-06T13:39:22.343Z,2.72
2018-10-06T13:41:51.732Z,2.08
2018-10-06T13:44:21.065Z,2.22
2018-10-06T13:46:50.524Z,2.02
2018-10-06T13:49:19.811Z,2.62
2018-10-06T13:51:52.695Z,2.27
2018-10-06T13:54:21.702Z,2.40
2018-10-06T13:56:52.605Z,2.20
2018-10-06T13:59:21.882Z,2.25
2018-10-06T14:01:51.244Z,2.25
2018-10-06T14:04:20.901Z,2.33
2018-10-06T14:06:50.254Z,2.30
2018-10-06T14:09:19.391Z,2.37
2018-10-06T14:11:48.885Z,2.22
2018-10-06T14:14:18.327Z,2.02
2018-10-06T14:16:47.699Z,2.10
2018-10-06T14:19:16.984Z,2.33
2018-10-06T14:21:46.330Z,2.02
2018-10-06T14:24:15.763Z,2.10
2018-10-06T14:26:45.045Z,2.25
2018-10-06T14:29:14.331Z,2.10
2018-10-06T14:31:43.651Z,2.40
2018-10-06T14:34:13.118Z,2.10
2018-10-06T14:36:42.714Z,2.00
2018-10-06T14:39:13.018Z,1.80
2018-10-06T14:41:42.604Z,2.50
2018-10-06T14:44:11.898Z,2.27
2018-10-06T14:46:41.199Z,2.15
2018-10-06T14:49:10.632Z,2.58
2018-10-06T14:51:46.585Z,2.50
2018-10-06T14:54:16.007Z,2.30
2018-10-06T14:56:45.556Z,2.50
2018-10-06T14:59:14.755Z,2.35
2018-10-06T15:01:44.060Z,2.42
2018-10-06T15:04:13.342Z,2.70
2018-10-06T15:06:42.700Z,2.47
2018-10-06T15:09:12.192Z,2.57
2018-10-06T15:11:41.835Z,2.70
2018-10-06T15:14:11.124Z,2.45
2018-10-06T15:16:40.407Z,2.40
2018-10-06T15:19:09.752Z,2.40
2018-10-06T15:21:39.124Z,2.90
2018-10-06T15:24:08.398Z,2.77
2018-10-06T15:26:37.671Z,2.97
2018-10-06T15:29:06.911Z,3.00
2018-10-06T15:31:36.091Z,2.80
2018-10-06T15:34:05.412Z,2.80
2018-10-06T15:36:34.756Z,2.83
2018-10-06T15:39:05.628Z,3.00
2018-10-06T15:41:35.030Z,2.90
2018-10-06T15:44:04.272Z,3.13
2018-10-06T15:46:41.960Z,3.07
2018-10-06T15:49:14.229Z,3.40
2018-10-06T15:51:43.551Z,3.43
2018-10-06T15:54:12.876Z,3.77
2018-10-06T15:56:42.120Z,4.40
2018-10-06T15:59:11.299Z,3.97
2018-10-06T16:01:40.661Z,3.67
2018-10-06T16:04:10.597Z,3.30
2018-10-06T16:06:39.938Z,3.40
2018-10-06T16:09:09.223Z,3.70
2018-10-06T16:11:38.669Z,3.80
2018-10-06T16:14:08.399Z,4.10
2018-10-06T16:16:37.652Z,3.57
2018-10-06T16:19:06.976Z,3.70
2018-10-06T16:21:36.311Z,3.40
2018-10-06T16:24:05.458Z,3.27
2018-10-06T16:26:34.682Z,3.80
2018-10-06T16:29:04.123Z,3.50
2018-10-06T16:31:33.307Z,3.60
2018-10-06T16:34:02.380Z,3.97
2018-10-06T16:36:31.393Z,3.83
2018-10-06T16:39:01.035Z,3.70
2018-10-06T16:41:31.698Z,3.40
2018-10-06T16:44:03.293Z,3.20
2018-10-06T16:46:34.110Z,3.97
2018-10-06T16:49:03.523Z,3.43
2018-10-06T16:51:34.686Z,3.50
2018-10-06T16:54:04.211Z,3.77
2018-10-06T16:56:33.307Z,4.10
2018-10-06T16:59:02.477Z,3.53
2018-10-06T17:01:31.705Z,3.93
2018-10-06T17:04:00.842Z,4.13
2018-10-06T17:06:30.078Z,4.43
2018-10-06T17:08:59.133Z,3.90
2018-10-06T17:11:28.227Z,4.00
2018-10-06T17:13:58.419Z,3.93
2018-10-06T17:16:27.634Z,3.93
2018-10-06T17:18:56.836Z,4.30
2018-10-06T17:21:26.136Z,4.20
2018-10-06T17:23:55.466Z,4.27
2018-10-06T17:26:25.019Z,4.60
2018-10-06T17:28:57.274Z,4.27
2018-10-06T17:31:26.681Z,4.10
2018-10-06T17:33:56.008Z,4.13
2018-10-06T17:36:25.230Z,4.40
2018-10-06T17:38:54.353Z,4.73
2018-10-06T17:41:23.382Z,4.23
2018-10-06T17:43:53.166Z,4.20
2018-10-06T17:46:22.511Z,3.80
2018-10-06T17:48:52.529Z,4.63
2018-10-06T17:51:21.838Z,4.10
2018-10-06T17:53:52.743Z,4.70
2018-10-06T17:56:21.690Z,3.67
2018-10-06T17:58:50.705Z,4.13
2018-10-06T18:01:19.932Z,4.43
2018-10-06T18:03:49.460Z,4.30
2018-10-06T18:06:18.756Z,4.20
2018-10-06T18:08:47.972Z,3.70
2018-10-06T18:11:17.025Z,3.70
2018-10-06T18:13:46.118Z,4.20
2018-10-06T18:16:15.564Z,3.77
2018-10-06T18:18:44.792Z,3.27
2018-10-06T18:21:14.044Z,3.20
2018-10-06T18:23:43.266Z,3.73
2018-10-06T18:26:12.346Z,3.90
2018-10-06T18:28:41.301Z,3.90
2018-10-06T18:31:10.708Z,3.33
2018-10-06T18:33:39.727Z,3.73
2018-10-06T18:36:08.814Z,3.50
2018-10-06T18:38:37.865Z,2.97
2018-10-06T18:41:07.682Z,3.27
2018-10-06T18:43:36.907Z,3.30
2018-10-06T18:46:06.000Z,3.57
2018-10-06T18:48:36.875Z,3.03
2018-10-06T18:51:05.893Z,3.43
2018-10-06T18:53:34.850Z,3.77
2018-10-06T18:56:04.027Z,3.20
2018-10-06T18:58:33.341Z,3.83
2018-10-06T19:01:02.543Z,4.20
2018-10-06T19:03:31.910Z,3.63
2018-10-06T19:06:00.970Z,3.87
2018-10-06T19:08:30.085Z,3.40
2018-10-06T19:10:59.945Z,3.53
2018-10-06T19:13:29.493Z,4.67
2018-10-06T19:15:59.233Z,5.00
2018-10-06T19:18:28.359Z,7.03
2018-10-06T19:20:57.428Z,6.70
2018-10-06T19:23:26.656Z,6.90
2018-10-06T19:25:56.178Z,6.60
2018-10-06T19:28:25.579Z,5.97
2018-10-06T19:30:55.085Z,6.97
2018-10-06T19:33:24.314Z,6.33
2018-10-06T19:35:54.832Z,6.93
2018-10-06T19:38:24.328Z,6.60
2018-10-06T19:40:53.530Z,6.90
2018-10-06T19:43:22.994Z,9.13
2018-10-06T19:45:52.391Z,9.10
2018-10-06T19:48:21.943Z,8.60
2018-10-06T19:50:51.405Z,9.60
2018-10-06T19:53:21.176Z,7.30
2018-10-06T19:55:50.533Z,8.97
2018-10-06T19:58:20.183Z,7.50
2018-10-06T20:00:49.862Z,6.73
2018-10-06T20:03:19.308Z,7.00
2018-10-06T20:05:48.698Z,6.30
2018-10-06T20:08:18.173Z,6.50
2018-10-06T20:10:47.748Z,6.63
2018-10-06T20:13:17.324Z,6.47
2018-10-06T20:15:46.877Z,6.73
2018-10-06T20:18:16.129Z,6.83
2018-10-06T20:20:45.989Z,5.63
2018-10-06T20:23:15.298Z,5.67
2018-10-06T20:25:44.611Z,5.63
2018-10-06T20:28:14.091Z,6.93
2018-10-06T20:30:43.595Z,7.13
2018-10-06T20:33:12.900Z,8.07
2018-10-06T20:35:42.587Z,8.00
2018-10-06T20:38:11.779Z,8.13
2018-10-06T20:40:41.158Z,6.87
2018-10-06T20:43:10.316Z,7.40
2018-10-06T20:45:39.395Z,7.63
2018-10-06T20:48:08.897Z,7.47
2018-10-06T20:50:37.973Z,7.83
2018-10-06T20:53:07.138Z,9.30
2018-10-06T20:55:36.366Z,8.53
2018-10-06T20:58:05.638Z,8.97
2018-10-06T21:00:34.627Z,7.83
2018-10-06T21:03:03.676Z,6.87
2018-10-06T21:05:32.979Z,6.70
2018-10-06T21:08:02.421Z,6.73
2018-10-06T21:10:31.481Z,6.97
2018-10-06T21:13:00.748Z,8.17
2018-10-06T21:15:30.503Z,8.07
2018-10-06T21:17:59.588Z,7.30
2018-10-06T21:20:28.787Z,6.93
2018-10-06T21:22:57.953Z,8.03
2018-10-06T21:25:27.285Z,6.70
2018-10-06T21:27:56.399Z,5.83
2018-10-06T21:30:25.949Z,5.93
2018-10-06T21:32:55.070Z,5.77
2018-10-06T21:35:24.213Z,8.47
2018-10-06T21:37:53.581Z,7.80
2018-10-06T21:40:22.695Z,7.47
2018-10-06T21:42:51.721Z,6.83
2018-10-06T21:45:20.722Z,6.90
2018-10-06T21:47:49.797Z,7.90
2018-10-06T21:50:18.887Z,7.10
2018-10-06T21:52:54.361Z,6.67
2018-10-06T21:55:23.733Z,6.40
2018-10-06T21:57:53.168Z,7.83
2018-10-06T22:00:22.229Z,7.00
2018-10-06T22:02:51.507Z,6.63
2018-10-06T22:05:20.845Z,6.47
2018-10-06T22:07:50.083Z,6.47
2018-10-06T22:10:19.357Z,6.27
2018-10-06T22:12:48.352Z,6.67
2018-10-06T22:15:17.501Z,6.47
2018-10-06T22:17:46.428Z,5.93
2018-10-06T22:20:15.988Z,7.73
2018-10-06T22:22:45.092Z,7.17
2018-10-06T22:25:14.367Z,7.30
2018-10-06T22:27:43.620Z,7.10
2018-10-06T22:30:12.997Z,7.07
2018-10-06T22:32:42.250Z,6.97
2018-10-06T22:35:11.488Z,7.67
2018-10-06T22:37:41.259Z,7.27
2018-10-06T22:40:10.871Z,7.03
2018-10-06T22:42:40.072Z,7.17
2018-10-06T22:45:09.414Z,8.80
2018-10-06T22:47:39.539Z,8.00
2018-10-06T22:50:09.858Z,7.47
2018-10-06T22:52:39.139Z,8.07
2018-10-06T22:55:08.744Z,7.80
2018-10-06T22:57:39.498Z,7.07
2018-10-06T23:00:08.481Z,7.07
2018-10-06T23:02:37.763Z,7.27
2018-10-06T23:05:07.079Z,8.70
2018-10-06T23:07:36.207Z,8.23
2018-10-06T23:10:05.555Z,8.43
2018-10-06T23:12:34.785Z,8.33
2018-10-06T23:15:04.042Z,7.77
2018-10-06T23:17:33.215Z,7.30
2018-10-06T23:20:02.516Z,9.47
2018-10-06T23:22:31.508Z,7.53
2018-10-06T23:25:00.993Z,8.50
2018-10-06T23:27:30.579Z,7.73
2018-10-06T23:29:59.766Z,8.53
2018-10-06T23:32:28.866Z,8.70
2018-10-06T23:34:58.642Z,7.23
2018-10-06T23:37:28.078Z,8.40
2018-10-06T23:39:57.956Z,7.80
2018-10-06T23:42:29.159Z,11.20
2018-10-06T23:44:59.257Z,9.30
2018-10-06T23:47:28.366Z,9.40
2018-10-06T23:49:58.357Z,8.47
2018-10-06T23:52:27.413Z,10.30
2018-10-06T23:54:57.393Z,11.00
2018-10-06T23:57:26.663Z,10.00
2018-10-06T23:59:56.146Z,9.97
